Chambersburg, PA (17201)

1:12 PM EDT on October 21, 2014 (GMT -0400)
Chambersburg | Change Station
CLOSE
Current Station
Personal Weather Station
Location: Chambersburg, PA
Elevation: 714 ft
Nearby Weather Stations

Elev 714 ft 39.96 °N, 77.66 °W | Updated 3 seconds ago

Partly Cloudy
Partly Cloudy
66.9 °F
Feels Like 66.9 °F
N
3.1
Wind Variable Wind from NW
Gusts 5.4 mph

Today
High -- | Low -- °F
--% Chance of Precip.
Yesterday
High -- | Low -- °F
Precip. -- in
7:27 AM 6:22 PM
Waning Crescent, 5% visible
Pressure 29.88 in
Visibility 10.0 miles
Clouds Few 6000 ft
Dew Point 52 °F
Humidity 58%
Rainfall 0.00 in
Snow Depth Not available.
UV 5 out of 12
Pollen .30 out of 12
Air Quality Not available.
Flu Activity Sporadic
METAR KHGR 211653Z 26005KT 10SM FEW060 17/08 A2985 RMK AO2 SLP116 T01670083

More Conditions Fewer Conditions

Pressure 29.88 in
Visibility 10.0 miles
Clouds Few 6000 ft
Dew Point 52 °F
Humidity 58%
Rainfall 0.00 in
Snow Depth Not available.
UV 5 out of 12
Pollen .30 out of 12
Air Quality Not available.
Flu Activity Sporadic
METAR KHGR 211653Z 26005KT 10SM FEW060 17/08 A2985 RMK AO2 SLP116 T01670083

More Conditions Fewer Conditions

10-Day Weather Forecast

Almanac

Astronomy

Oct. 21, 2014 Rise Set
Actual Time 7:27 AM EDT 6:22 PM EDT
Civil Twilight 6:59 AM EDT 6:50 PM EDT
Nautical Twilight 6:28 AM EDT 7:21 PM EDT
Astronomical Twilight 5:57 AM EDT 7:52 PM EDT
Moon 5:09 AM EDT 5:15 PM EDT
Length of Visible Light 11h 50m
Length of Day
10h 55m
Tomorrow will be 2m 28s shorter.
Waning Crescent, 5% of the Moon is Illuminated
Today
Waning Crescent
Oct 23
New
Oct 30
First Quarter
Nov 6
Full
Nov 14
Last Quarter

Today's Extremes

State Highs State Lows

Community

WunderPhotos

Upload Photos

1,763,716 photos uploaded!

Nearby

Snow Depth

Station Depth Elevation
No new snow has been reported.

Earthquake Activity

City Distance Mag. Time & Date
No recent earthquake activity has been reported nearby.
Minimum magnitude displayed is 2.5.

Coastal Water Temperatures

Place Temperature
No Stations Reporting

Nearby Weather Stations